sensor_id;sensor_type;location;lat;lon;timestamp;pressure;altitude;pressure_sealevel;temperature;humidity
41062;BME280;26812;42.662;23.352;2023-02-21T00:01:56;95318.72;;;5.83;57.15
41062;BME280;26812;42.662;23.352;2023-02-21T00:04:40;95315.16;;;5.48;58.40
41062;BME280;26812;42.662;23.352;2023-02-21T00:07:25;95315.81;;;5.74;57.88
41062;BME280;26812;42.662;23.352;2023-02-21T00:10:12;95299.53;;;5.71;57.11
41062;BME280;26812;42.662;23.352;2023-02-21T00:12:56;95315.84;;;5.69;57.45
41062;BME280;26812;42.662;23.352;2023-02-21T00:15:40;95311.72;;;5.38;58.57
41062;BME280;26812;42.662;23.352;2023-02-21T00:18:24;95304.22;;;5.45;58.33
41062;BME280;26812;42.662;23.352;2023-02-21T00:21:08;95304.19;;;5.55;58.27
41062;BME280;26812;42.662;23.352;2023-02-21T00:23:52;95314.53;;;5.67;57.94
41062;BME280;26812;42.662;23.352;2023-02-21T00:26:36;95318.81;;;5.68;57.31
41062;BME280;26812;42.662;23.352;2023-02-21T00:29:20;95299.63;;;5.55;57.80
41062;BME280;26812;42.662;23.352;2023-02-21T00:32:04;95268.50;;;5.30;58.09
41062;BME280;26812;42.662;23.352;2023-02-21T00:34:48;95291.38;;;5.52;58.22
41062;BME280;26812;42.662;23.352;2023-02-21T00:37:32;95298.31;;;5.53;58.19
41062;BME280;26812;42.662;23.352;2023-02-21T00:40:16;95276.66;;;5.49;57.76
41062;BME280;26812;42.662;23.352;2023-02-21T00:43:00;95293.75;;;5.58;57.81
41062;BME280;26812;42.662;23.352;2023-02-21T00:45:44;95291.94;;;5.44;57.90
41062;BME280;26812;42.662;23.352;2023-02-21T00:48:28;95291.31;;;5.62;58.01
41062;BME280;26812;42.662;23.352;2023-02-21T00:51:12;95273.44;;;5.57;57.63
41062;BME280;26812;42.662;23.352;2023-02-21T00:53:56;95287.06;;;5.56;57.75
41062;BME280;26812;42.662;23.352;2023-02-21T00:56:40;95275.53;;;5.60;57.46
41062;BME280;26812;42.662;23.352;2023-02-21T00:59:32;95267.75;;;5.69;57.60
41062;BME280;26812;42.662;23.352;2023-02-21T01:02:15;95265.06;;;5.69;57.39
41062;BME280;26812;42.662;23.352;2023-02-21T01:04:59;95257.03;;;5.69;57.31
41062;BME280;26812;42.662;23.352;2023-02-21T01:07:50;95252.78;;;5.68;57.69
41062;BME280;26812;42.662;23.352;2023-02-21T01:10:34;95241.28;;;5.68;57.42
41062;BME280;26812;42.662;23.352;2023-02-21T01:13:18;95251.31;;;5.91;57.41
41062;BME280;26812;42.662;23.352;2023-02-21T01:16:02;95244.06;;;5.97;56.58
41062;BME280;26812;42.662;23.352;2023-02-21T01:18:48;95238.22;;;5.89;57.25
41062;BME280;26812;42.662;23.352;2023-02-21T01:21:32;95230.44;;;5.93;57.09
41062;BME280;26812;42.662;23.352;2023-02-21T01:24:16;95225.88;;;5.54;57.67
41062;BME280;26812;42.662;23.352;2023-02-21T01:27:00;95222.81;;;5.27;59.05
41062;BME280;26812;42.662;23.352;2023-02-21T01:29:44;95213.63;;;5.43;58.42
41062;BME280;26812;42.662;23.352;2023-02-21T01:32:28;95220.81;;;5.53;57.54
41062;BME280;26812;42.662;23.352;2023-02-21T01:35:12;95210.38;;;5.56;57.48
41062;BME280;26812;42.662;23.352;2023-02-21T01:37:56;95231.34;;;5.73;57.26
41062;BME280;26812;42.662;23.352;2023-02-21T01:40:40;95227.47;;;5.55;58.34
41062;BME280;26812;42.662;23.352;2023-02-21T01:43:26;95237.38;;;5.55;58.03
41062;BME280;26812;42.662;23.352;2023-02-21T01:46:12;95228.59;;;4.95;59.14
41062;BME280;26812;42.662;23.352;2023-02-21T01:49:00;95229.53;;;5.19;59.51
41062;BME280;26812;42.662;23.352;2023-02-21T01:51:45;95221.00;;;5.12;59.35
41062;BME280;26812;42.662;23.352;2023-02-21T01:54:33;95215.06;;;5.30;58.84
41062;BME280;26812;42.662;23.352;2023-02-21T01:57:19;95208.31;;;5.38;58.05
41062;BME280;26812;42.662;23.352;2023-02-21T02:00:06;95205.00;;;5.56;57.75
41062;BME280;26812;42.662;23.352;2023-02-21T02:02:56;95206.94;;;5.46;58.08
41062;BME280;26812;42.662;23.352;2023-02-21T02:05:51;95195.16;;;5.52;57.79
41062;BME280;26812;42.662;23.352;2023-02-21T02:08:37;95186.53;;;5.60;57.01
41062;BME280;26812;42.662;23.352;2023-02-21T02:20:09;95178.91;;;5.43;57.95
41062;BME280;26812;42.662;23.352;2023-02-21T02:34:00;95174.31;;;5.54;57.89
41062;BME280;26812;42.662;23.352;2023-02-21T02:36:40;95155.88;;;5.47;57.33
41062;BME280;26812;42.662;23.352;2023-02-21T02:39:22;95178.97;;;5.72;57.51
41062;BME280;26812;42.662;23.352;2023-02-21T02:42:04;95182.88;;;5.90;57.37
41062;BME280;26812;42.662;23.352;2023-02-21T02:44:39;95178.41;;;5.75;57.84
41062;BME280;26812;42.662;23.352;2023-02-21T02:47:10;95171.41;;;5.79;56.92
41062;BME280;26812;42.662;23.352;2023-02-21T02:49:45;95161.69;;;5.59;57.31
41062;BME280;26812;42.662;23.352;2023-02-21T02:52:12;95174.31;;;5.54;58.00
41062;BME280;26812;42.662;23.352;2023-02-21T02:54:37;95168.34;;;5.62;57.91
41062;BME280;26812;42.662;23.352;2023-02-21T02:57:04;95148.31;;;5.59;57.58
41062;BME280;26812;42.662;23.352;2023-02-21T02:59:36;95156.22;;;5.75;56.96
41062;BME280;26812;42.662;23.352;2023-02-21T03:02:51;95107.63;;;5.34;57.10
41062;BME280;26812;42.662;23.352;2023-02-21T03:07:49;95166.72;;;5.66;58.03
41062;BME280;26812;42.662;23.352;2023-02-21T03:10:40;95171.44;;;5.74;57.09
41062;BME280;26812;42.662;23.352;2023-02-21T03:13:29;95156.81;;;5.33;57.61
41062;BME280;26812;42.662;23.352;2023-02-21T03:16:14;95175.91;;;5.50;57.88
41062;BME280;26812;42.662;23.352;2023-02-21T03:18:47;95156.16;;;5.46;57.46
41062;BME280;26812;42.662;23.352;2023-02-21T03:21:23;95152.41;;;5.47;57.37
41062;BME280;26812;42.662;23.352;2023-02-21T03:23:53;95179.25;;;5.32;58.64
41062;BME280;26812;42.662;23.352;2023-02-21T03:26:21;95156.78;;;4.93;59.04
41062;BME280;26812;42.662;23.352;2023-02-21T03:28:47;95096.44;;;4.92;58.39
41062;BME280;26812;42.662;23.352;2023-02-21T03:31:16;95134.47;;;5.13;58.21
41062;BME280;26812;42.662;23.352;2023-02-21T03:33:44;95135.50;;;5.17;58.25
41062;BME280;26812;42.662;23.352;2023-02-21T03:36:10;95153.41;;;5.17;58.91
41062;BME280;26812;42.662;23.352;2023-02-21T03:38:36;95154.88;;;5.38;58.39
41062;BME280;26812;42.662;23.352;2023-02-21T03:41:01;95124.88;;;5.12;57.95
41062;BME280;26812;42.662;23.352;2023-02-21T03:43:27;95152.19;;;4.99;59.21
41062;BME280;26812;42.662;23.352;2023-02-21T03:45:52;95125.47;;;5.04;58.50
41062;BME280;26812;42.662;23.352;2023-02-21T03:48:18;95145.03;;;5.34;57.87
41062;BME280;26812;42.662;23.352;2023-02-21T03:50:43;95140.16;;;5.41;57.54
41062;BME280;26812;42.662;23.352;2023-02-21T03:53:09;95163.56;;;5.59;57.25
41062;BME280;26812;42.662;23.352;2023-02-21T03:55:35;95176.19;;;5.48;57.82
41062;BME280;26812;42.662;23.352;2023-02-21T03:58:00;95153.72;;;5.49;57.76
41062;BME280;26812;42.662;23.352;2023-02-21T04:00:26;95150.75;;;5.56;57.22
41062;BME280;26812;42.662;23.352;2023-02-21T04:02:51;95174.44;;;5.68;56.51
41062;BME280;26812;42.662;23.352;2023-02-21T04:05:16;95174.69;;;5.71;56.83
41062;BME280;26812;42.662;23.352;2023-02-21T04:07:42;95177.09;;;5.73;56.62
41062;BME280;26812;42.662;23.352;2023-02-21T04:10:07;95144.91;;;5.54;56.78
41062;BME280;26812;42.662;23.352;2023-02-21T04:12:33;95177.31;;;5.76;56.48
41062;BME280;26812;42.662;23.352;2023-02-21T04:14:58;95171.19;;;5.76;56.18
41062;BME280;26812;42.662;23.352;2023-02-21T04:17:24;95189.59;;;5.82;56.52
41062;BME280;26812;42.662;23.352;2023-02-21T04:19:50;95180.16;;;5.51;57.20
41062;BME280;26812;42.662;23.352;2023-02-21T04:22:16;95183.16;;;5.44;57.69
41062;BME280;26812;42.662;23.352;2023-02-21T04:24:41;95174.06;;;5.45;57.78
41062;BME280;26812;42.662;23.352;2023-02-21T04:27:07;95144.59;;;5.16;57.82
41062;BME280;26812;42.662;23.352;2023-02-21T04:29:32;95153.66;;;5.25;57.75
41062;BME280;26812;42.662;23.352;2023-02-21T04:31:58;95188.34;;;5.30;58.46
41062;BME280;26812;42.662;23.352;2023-02-21T04:34:23;95211.75;;;5.44;58.19
41062;BME280;26812;42.662;23.352;2023-02-21T04:36:49;95177.75;;;5.10;58.21
41062;BME280;26812;42.662;23.352;2023-02-21T04:39:14;95177.56;;;4.96;59.06
41062;BME280;26812;42.662;23.352;2023-02-21T04:41:40;95186.59;;;5.06;59.20
41062;BME280;26812;42.662;23.352;2023-02-21T04:44:05;95193.00;;;5.10;58.88
41062;BME280;26812;42.662;23.352;2023-02-21T04:46:31;95177.88;;;4.90;59.52
41062;BME280;26812;42.662;23.352;2023-02-21T04:48:57;95201.34;;;4.98;59.27
41062;BME280;26812;42.662;23.352;2023-02-21T04:51:24;95205.38;;;4.90;59.90
41062;BME280;26812;42.662;23.352;2023-02-21T04:53:51;95190.09;;;4.16;61.70
41062;BME280;26812;42.662;23.352;2023-02-21T04:56:18;95173.78;;;4.38;61.16
41062;BME280;26812;42.662;23.352;2023-02-21T04:58:45;95192.72;;;4.42;61.92
41062;BME280;26812;42.662;23.352;2023-02-21T05:01:10;95173.81;;;4.23;61.70
41062;BME280;26812;42.662;23.352;2023-02-21T05:03:36;95175.06;;;4.51;60.98
41062;BME280;26812;42.662;23.352;2023-02-21T05:06:02;95143.13;;;4.35;60.71
41062;BME280;26812;42.662;23.352;2023-02-21T05:08:27;95167.88;;;4.51;61.63
41062;BME280;26812;42.662;23.352;2023-02-21T05:10:53;95160.63;;;4.67;60.71
41062;BME280;26812;42.662;23.352;2023-02-21T05:13:20;95172.28;;;4.81;60.26
41062;BME280;26812;42.662;23.352;2023-02-21T05:15:45;95165.19;;;4.61;61.24
41062;BME280;26812;42.662;23.352;2023-02-21T05:18:11;95167.88;;;4.51;61.29
41062;BME280;26812;42.662;23.352;2023-02-21T05:20:36;95108.75;;;4.29;61.47
41062;BME280;26812;42.662;23.352;2023-02-21T05:23:02;95135.25;;;4.70;61.05
41062;BME280;26812;42.662;23.352;2023-02-21T05:25:27;95151.97;;;4.90;60.21
41062;BME280;26812;42.662;23.352;2023-02-21T05:27:53;95128.81;;;4.76;60.28
41062;BME280;26812;42.662;23.352;2023-02-21T05:30:24;95144.25;;;4.84;60.02
41062;BME280;26812;42.662;23.352;2023-02-21T05:32:50;95116.25;;;4.76;59.79
41062;BME280;26812;42.662;23.352;2023-02-21T05:35:15;95139.66;;;4.99;59.19
41062;BME280;26812;42.662;23.352;2023-02-21T05:37:41;95137.69;;;5.10;59.26
41062;BME280;26812;42.662;23.352;2023-02-21T05:40:09;95176.53;;;5.37;58.78
41062;BME280;26812;42.662;23.352;2023-02-21T05:42:36;95132.56;;;5.19;58.72
41062;BME280;26812;42.662;23.352;2023-02-21T05:45:01;95153.56;;;5.36;57.96
41062;BME280;26812;42.662;23.352;2023-02-21T05:47:27;95160.53;;;5.32;58.23
41062;BME280;26812;42.662;23.352;2023-02-21T05:49:52;95174.06;;;5.45;57.67
41062;BME280;26812;42.662;23.352;2023-02-21T05:52:17;95171.34;;;5.50;57.50
41062;BME280;26812;42.662;23.352;2023-02-21T05:54:43;95182.31;;;5.54;57.22
41062;BME280;26812;42.662;23.352;2023-02-21T05:57:08;95189.41;;;5.69;56.75
41062;BME280;26812;42.662;23.352;2023-02-21T05:59:34;95188.91;;;5.67;57.50
41062;BME280;26812;42.662;23.352;2023-02-21T06:01:59;95193.34;;;5.76;57.63
41062;BME280;26812;42.662;23.352;2023-02-21T06:04:25;95195.19;;;5.81;57.03
41062;BME280;26812;42.662;23.352;2023-02-21T06:06:50;95176.69;;;6.23;57.89
41062;BME280;26812;42.662;23.352;2023-02-21T06:09:17;95185.78;;;7.37;52.48
41062;BME280;26812;42.662;23.352;2023-02-21T06:11:43;95193.31;;;10.06;48.33
41062;BME280;26812;42.662;23.352;2023-02-21T06:14:17;95182.25;;;12.35;41.08
41062;BME280;26812;42.662;23.352;2023-02-21T06:16:43;95115.97;;;13.97;36.68
41062;BME280;26812;42.662;23.352;2023-02-21T06:19:10;95188.84;;;14.11;34.65
41062;BME280;26812;42.662;23.352;2023-02-21T06:21:37;95196.69;;;14.04;36.27
41062;BME280;26812;42.662;23.352;2023-02-21T06:24:03;95203.38;;;12.24;37.87
41062;BME280;26812;42.662;23.352;2023-02-21T06:26:29;95181.44;;;13.57;37.40
41062;BME280;26812;42.662;23.352;2023-02-21T06:28:54;95205.75;;;15.19;32.78
41062;BME280;26812;42.662;23.352;2023-02-21T06:31:21;95198.19;;;13.51;34.91
41062;BME280;26812;42.662;23.352;2023-02-21T06:33:47;95196.50;;;12.61;37.51
41062;BME280;26812;42.662;23.352;2023-02-21T06:36:17;95195.78;;;11.83;38.44
41062;BME280;26812;42.662;23.352;2023-02-21T06:38:45;95217.88;;;11.28;40.54
41062;BME280;26812;42.662;23.352;2023-02-21T06:41:14;95210.88;;;12.83;37.50
41062;BME280;26812;42.662;23.352;2023-02-21T06:43:39;95187.53;;;11.88;38.56
41062;BME280;26812;42.662;23.352;2023-02-21T06:46:05;95217.78;;;11.59;39.55
41062;BME280;26812;42.662;23.352;2023-02-21T06:48:30;95218.03;;;11.97;38.91
41062;BME280;26812;42.662;23.352;2023-02-21T06:50:56;95220.63;;;13.13;37.03
41062;BME280;26812;42.662;23.352;2023-02-21T06:53:21;95214.78;;;11.52;38.85
41062;BME280;26812;42.662;23.352;2023-02-21T06:55:47;95216.53;;;12.52;38.04
41062;BME280;26812;42.662;23.352;2023-02-21T06:58:12;95207.72;;;14.73;33.27
41062;BME280;26812;42.662;23.352;2023-02-21T07:00:38;95194.66;;;15.73;31.95
41062;BME280;26812;42.662;23.352;2023-02-21T07:03:04;95190.03;;;17.99;29.32
41062;BME280;26812;42.662;23.352;2023-02-21T07:05:32;95183.16;;;20.34;25.45
41062;BME280;26812;42.662;23.352;2023-02-21T07:08:03;95215.47;;;20.51;25.11
41062;BME280;26812;42.662;23.352;2023-02-21T07:10:28;95208.53;;;21.86;23.05
41062;BME280;26812;42.662;23.352;2023-02-21T07:12:54;95207.59;;;23.35;21.73
41062;BME280;26812;42.662;23.352;2023-02-21T07:15:20;95188.34;;;23.35;21.01
41062;BME280;26812;42.662;23.352;2023-02-21T07:17:45;95221.50;;;24.90;19.71
41062;BME280;26812;42.662;23.352;2023-02-21T07:20:11;95205.59;;;23.24;20.93
41062;BME280;26812;42.662;23.352;2023-02-21T07:22:36;95208.50;;;22.48;21.82
41062;BME280;26812;42.662;23.352;2023-02-21T07:25:02;95196.97;;;21.59;22.68
41062;BME280;26812;42.662;23.352;2023-02-21T07:27:27;95148.59;;;21.88;22.10
41062;BME280;26812;42.662;23.352;2023-02-21T07:29:53;95194.84;;;21.93;22.26
41062;BME280;26812;42.662;23.352;2023-02-21T07:32:19;95145.63;;;21.53;22.24
41062;BME280;26812;42.662;23.352;2023-02-21T07:34:44;95180.09;;;22.09;22.10
41062;BME280;26812;42.662;23.352;2023-02-21T07:37:10;95202.88;;;21.61;22.56
41062;BME280;26812;42.662;23.352;2023-02-21T07:39:36;95190.28;;;22.05;22.26
41062;BME280;26812;42.662;23.352;2023-02-21T07:42:02;95182.72;;;22.74;21.88
41062;BME280;26812;42.662;23.352;2023-02-21T07:44:28;95166.25;;;22.78;21.21
41062;BME280;26812;42.662;23.352;2023-02-21T07:46:55;95182.63;;;22.46;21.67
41062;BME280;26812;42.662;23.352;2023-02-21T07:49:21;95177.50;;;20.83;23.50
41062;BME280;26812;42.662;23.352;2023-02-21T07:51:46;95183.13;;;21.01;23.23
41062;BME280;26812;42.662;23.352;2023-02-21T07:54:12;95176.34;;;21.76;22.83
41062;BME280;26812;42.662;23.352;2023-02-21T07:56:48;95163.34;;;19.84;24.25
41062;BME280;26812;42.662;23.352;2023-02-21T07:59:14;95164.22;;;18.51;26.45
41062;BME280;26812;42.662;23.352;2023-02-21T08:01:39;95165.97;;;17.50;27.91
41062;BME280;26812;42.662;23.352;2023-02-21T08:04:05;95153.72;;;16.93;28.45
41062;BME280;26812;42.662;23.352;2023-02-21T08:06:33;95173.63;;;16.66;29.30
41062;BME280;26812;42.662;23.352;2023-02-21T08:08:59;95108.38;;;14.56;32.30
41062;BME280;26812;42.662;23.352;2023-02-21T08:11:24;95167.41;;;15.33;32.13
41062;BME280;26812;42.662;23.352;2023-02-21T08:13:49;95134.22;;;14.54;33.64
41062;BME280;26812;42.662;23.352;2023-02-21T08:16:15;95144.91;;;13.63;34.47
41062;BME280;26812;42.662;23.352;2023-02-21T08:18:41;95135.56;;;13.82;34.55
41062;BME280;26812;42.662;23.352;2023-02-21T08:21:08;95153.84;;;12.11;37.66
41062;BME280;26812;42.662;23.352;2023-02-21T08:23:34;95097.66;;;11.79;38.45
41062;BME280;26812;42.662;23.352;2023-02-21T08:26:03;95172.63;;;12.55;37.59
41062;BME280;26812;42.662;23.352;2023-02-21T08:28:28;95148.28;;;11.65;39.30
41062;BME280;26812;42.662;23.352;2023-02-21T08:30:54;95161.00;;;11.81;39.41
41062;BME280;26812;42.662;23.352;2023-02-21T08:33:20;95163.81;;;11.59;39.76
41062;BME280;26812;42.662;23.352;2023-02-21T08:35:45;95088.41;;;10.45;41.50
41062;BME280;26812;42.662;23.352;2023-02-21T08:38:11;95118.59;;;11.99;39.32
41062;BME280;26812;42.662;23.352;2023-02-21T08:40:36;95133.16;;;13.59;36.28
41062;BME280;26812;42.662;23.352;2023-02-21T08:43:02;95108.81;;;14.58;33.98
41062;BME280;26812;42.662;23.352;2023-02-21T08:45:27;95141.03;;;15.70;32.79
41062;BME280;26812;42.662;23.352;2023-02-21T08:47:54;95091.19;;;15.78;31.52
41062;BME280;26812;42.662;23.352;2023-02-21T08:50:20;95156.84;;;16.64;30.97
41062;BME280;26812;42.662;23.352;2023-02-21T08:52:47;95145.25;;;16.23;30.79
41062;BME280;26812;42.662;23.352;2023-02-21T08:55:13;95112.84;;;15.50;32.27
41062;BME280;26812;42.662;23.352;2023-02-21T08:57:39;95116.25;;;16.43;31.04
41062;BME280;26812;42.662;23.352;2023-02-21T09:00:06;95115.38;;;17.49;29.16
41062;BME280;26812;42.662;23.352;2023-02-21T09:02:36;95147.81;;;18.09;28.63
41062;BME280;26812;42.662;23.352;2023-02-21T09:05:10;95139.53;;;17.51;30.23
41062;BME280;26812;42.662;23.352;2023-02-21T09:07:36;95108.91;;;17.73;29.15
41062;BME280;26812;42.662;23.352;2023-02-21T09:10:03;95045.97;;;15.70;31.04
41062;BME280;26812;42.662;23.352;2023-02-21T09:12:28;95133.38;;;14.86;33.66
41062;BME280;26812;42.662;23.352;2023-02-21T09:14:54;95062.91;;;13.63;34.76
41062;BME280;26812;42.662;23.352;2023-02-21T09:17:19;95122.09;;;12.93;37.10
41062;BME280;26812;42.662;23.352;2023-02-21T09:19:45;95031.72;;;13.78;35.31
41062;BME280;26812;42.662;23.352;2023-02-21T09:22:10;95118.38;;;15.53;33.76
41062;BME280;26812;42.662;23.352;2023-02-21T09:24:37;95031.56;;;14.77;33.30
41062;BME280;26812;42.662;23.352;2023-02-21T09:27:03;95102.94;;;14.56;34.01
41062;BME280;26812;42.662;23.352;2023-02-21T09:29:30;95108.00;;;15.96;32.59
41062;BME280;26812;42.662;23.352;2023-02-21T09:31:57;95029.78;;;17.50;29.24
41062;BME280;26812;42.662;23.352;2023-02-21T09:34:22;95033.03;;;19.62;25.62
41062;BME280;26812;42.662;23.352;2023-02-21T09:36:48;95011.28;;;21.46;23.69
41062;BME280;26812;42.662;23.352;2023-02-21T09:39:19;95100.56;;;24.33;20.67
41062;BME280;26812;42.662;23.352;2023-02-21T09:41:46;95054.78;;;25.60;19.00
41062;BME280;26812;42.662;23.352;2023-02-21T09:44:18;95104.75;;;27.29;17.34
41062;BME280;26812;42.662;23.352;2023-02-21T09:46:49;95096.84;;;27.28;16.89
41062;BME280;26812;42.662;23.352;2023-02-21T09:51:47;95088.81;;;24.91;19.36
41062;BME280;26812;42.662;23.352;2023-02-21T09:54:26;95078.97;;;22.11;22.23
41062;BME280;26812;42.662;23.352;2023-02-21T09:56:53;95068.13;;;22.64;22.54
41062;BME280;26812;42.662;23.352;2023-02-21T09:59:18;95073.25;;;26.05;18.60
41062;BME280;26812;42.662;23.352;2023-02-21T10:02:14;95072.41;;;26.72;17.59
41062;BME280;26812;42.662;23.352;2023-02-21T10:10:28;95058.34;;;31.02;14.80
41062;BME280;26812;42.662;23.352;2023-02-21T10:15:52;95056.66;;;32.77;12.70
41062;BME280;26812;42.662;23.352;2023-02-21T10:19:00;95040.34;;;32.76;12.46
41062;BME280;26812;42.662;23.352;2023-02-21T10:21:32;95035.56;;;32.01;12.64
41062;BME280;26812;42.662;23.352;2023-02-21T10:24:01;95032.22;;;30.74;13.48
41062;BME280;26812;42.662;23.352;2023-02-21T10:26:32;94971.09;;;29.78;14.00
41062;BME280;26812;42.662;23.352;2023-02-21T10:28:59;95025.50;;;26.38;16.72
41062;BME280;26812;42.662;23.352;2023-02-21T10:33:56;95026.63;;;25.80;18.43
41062;BME280;26812;42.662;23.352;2023-02-21T10:36:24;95005.25;;;28.44;15.44
41062;BME280;26812;42.662;23.352;2023-02-21T10:39:03;95000.41;;;30.62;13.94
41062;BME280;26812;42.662;23.352;2023-02-21T10:41:33;94984.22;;;32.64;12.29
41062;BME280;26812;42.662;23.352;2023-02-21T10:44:09;94977.09;;;34.68;10.50
41062;BME280;26812;42.662;23.352;2023-02-21T10:46:46;94987.69;;;36.17;9.47
41062;BME280;26812;42.662;23.352;2023-02-21T10:49:39;94982.06;;;36.17;9.25
41062;BME280;26812;42.662;23.352;2023-02-21T10:52:14;94960.19;;;35.53;9.86
41062;BME280;26812;42.662;23.352;2023-02-21T10:57:23;94939.72;;;35.76;9.80
41062;BME280;26812;42.662;23.352;2023-02-21T10:59:49;94962.53;;;32.28;10.35
41062;BME280;26812;42.662;23.352;2023-02-21T11:02:40;94942.06;;;31.78;10.70
41062;BME280;26812;42.662;23.352;2023-02-21T11:05:15;94953.53;;;29.06;11.51
41062;BME280;26812;42.662;23.352;2023-02-21T11:08:00;94953.56;;;29.93;11.61
41062;BME280;26812;42.662;23.352;2023-02-21T11:10:29;94927.34;;;28.42;12.29
41062;BME280;26812;42.662;23.352;2023-02-21T11:13:21;94936.03;;;27.89;12.79
41062;BME280;26812;42.662;23.352;2023-02-21T11:15:47;94893.81;;;29.47;12.19
41062;BME280;26812;42.662;23.352;2023-02-21T11:18:24;94920.88;;;29.43;12.11
41062;BME280;26812;42.662;23.352;2023-02-21T11:20:51;94914.38;;;28.88;12.29
41062;BME280;26812;42.662;23.352;2023-02-21T11:25:46;94910.91;;;29.87;11.76
41062;BME280;26812;42.662;23.352;2023-02-21T11:30:41;94889.97;;;24.55;15.19
41062;BME280;26812;42.662;23.352;2023-02-21T11:33:08;94904.34;;;26.87;13.97
41062;BME280;26812;42.662;23.352;2023-02-21T11:35:38;94895.19;;;28.77;12.72
41062;BME280;26812;42.662;23.352;2023-02-21T11:38:10;94896.59;;;28.69;12.71
41062;BME280;26812;42.662;23.352;2023-02-21T11:40:53;94836.94;;;28.65;12.42
41062;BME280;26812;42.662;23.352;2023-02-21T11:51:17;94861.47;;;29.12;12.39
41062;BME280;26812;42.662;23.352;2023-02-21T11:53:47;94826.81;;;29.99;12.12
41062;BME280;26812;42.662;23.352;2023-02-21T11:56:24;94868.53;;;30.12;11.55
41062;BME280;26812;42.662;23.352;2023-02-21T11:58:57;94859.41;;;27.06;14.34
41062;BME280;26812;42.662;23.352;2023-02-21T12:01:35;94850.69;;;27.67;15.35
41062;BME280;26812;42.662;23.352;2023-02-21T12:07:27;94841.31;;;25.81;15.25
41062;BME280;26812;42.662;23.352;2023-02-21T12:12:49;94810.03;;;26.42;14.50
41062;BME280;26812;42.662;23.352;2023-02-21T12:21:28;94827.88;;;26.37;15.51
41062;BME280;26812;42.662;23.352;2023-02-21T12:27:02;94800.16;;;25.02;15.50
41062;BME280;26812;42.662;23.352;2023-02-21T12:45:27;94786.34;;;25.36;16.62
41062;BME280;26812;42.662;23.352;2023-02-21T12:48:14;94787.97;;;23.73;17.79
41062;BME280;26812;42.662;23.352;2023-02-21T12:50:42;94790.16;;;23.96;17.64
41062;BME280;26812;42.662;23.352;2023-02-21T12:53:16;94786.81;;;23.70;18.25
41062;BME280;26812;42.662;23.352;2023-02-21T12:55:58;94772.94;;;23.22;18.18
41062;BME280;26812;42.662;23.352;2023-02-21T13:01:10;94785.22;;;24.25;17.79
41062;BME280;26812;42.662;23.352;2023-02-21T13:03:47;94784.75;;;24.71;17.23
41062;BME280;26812;42.662;23.352;2023-02-21T13:06:35;94789.66;;;23.60;18.01
41062;BME280;26812;42.662;23.352;2023-02-21T13:14:16;94759.19;;;23.22;18.26
41062;BME280;26812;42.662;23.352;2023-02-21T13:16:43;94747.03;;;23.19;17.93
41062;BME280;26812;42.662;23.352;2023-02-21T13:19:11;94755.22;;;23.34;18.08
41062;BME280;26812;42.662;23.352;2023-02-21T13:30:02;94768.06;;;23.58;18.59
41062;BME280;26812;42.662;23.352;2023-02-21T13:32:37;94759.16;;;23.26;18.02
41062;BME280;26812;42.662;23.352;2023-02-21T13:35:06;94741.38;;;23.48;17.66
41062;BME280;26812;42.662;23.352;2023-02-21T13:37:34;94744.06;;;23.62;17.97
41062;BME280;26812;42.662;23.352;2023-02-21T13:40:05;94750.53;;;23.90;18.25
41062;BME280;26812;42.662;23.352;2023-02-21T13:42:37;94747.09;;;23.09;18.19
41062;BME280;26812;42.662;23.352;2023-02-21T13:45:08;94752.22;;;23.73;18.62
41062;BME280;26812;42.662;23.352;2023-02-21T13:53:24;94726.03;;;25.12;16.52
41062;BME280;26812;42.662;23.352;2023-02-21T13:56:14;94725.56;;;25.74;15.93
41062;BME280;26812;42.662;23.352;2023-02-21T13:58:43;94737.22;;;24.63;17.07
41062;BME280;26812;42.662;23.352;2023-02-21T14:03:47;94702.78;;;23.66;17.46
41062;BME280;26812;42.662;23.352;2023-02-21T14:06:55;94724.56;;;24.35;17.60
41062;BME280;26812;42.662;23.352;2023-02-21T14:09:17;94730.53;;;24.64;16.89
41062;BME280;26812;42.662;23.352;2023-02-21T14:11:47;94708.91;;;24.29;17.21
41062;BME280;26812;42.662;23.352;2023-02-21T14:14:31;94713.94;;;23.93;17.24
41062;BME280;26812;42.662;23.352;2023-02-21T14:17:05;94725.63;;;23.59;17.84
41062;BME280;26812;42.662;23.352;2023-02-21T14:22:15;94727.44;;;23.17;18.17
41062;BME280;26812;42.662;23.352;2023-02-21T14:24:46;94727.22;;;22.80;19.32
41062;BME280;26812;42.662;23.352;2023-02-21T14:32:47;94710.19;;;21.90;19.20
41062;BME280;26812;42.662;23.352;2023-02-21T14:35:57;94718.81;;;22.07;19.21
41062;BME280;26812;42.662;23.352;2023-02-21T14:38:27;94725.06;;;21.89;20.07
41062;BME280;26812;42.662;23.352;2023-02-21T14:41:00;94720.38;;;21.65;19.33
41062;BME280;26812;42.662;23.352;2023-02-21T14:56:59;94721.03;;;20.87;19.39
41062;BME280;26812;42.662;23.352;2023-02-21T14:59:44;94718.78;;;20.24;19.70
41062;BME280;26812;42.662;23.352;2023-02-21T15:04:59;94717.34;;;19.85;20.86
41062;BME280;26812;42.662;23.352;2023-02-21T15:07:40;94712.81;;;20.04;20.62
41062;BME280;26812;42.662;23.352;2023-02-21T15:12:48;94704.63;;;20.11;20.37
41062;BME280;26812;42.662;23.352;2023-02-21T15:15:23;94717.91;;;20.12;20.42
41062;BME280;26812;42.662;23.352;2023-02-21T15:18:11;94713.19;;;20.02;22.28
41062;BME280;26812;42.662;23.352;2023-02-21T15:20:39;94697.00;;;19.79;20.55
41062;BME280;26812;42.662;23.352;2023-02-21T15:25:34;94701.47;;;19.50;21.79
41062;BME280;26812;42.662;23.352;2023-02-21T15:28:02;94704.53;;;19.42;21.55
41062;BME280;26812;42.662;23.352;2023-02-21T15:30:39;94699.88;;;19.46;21.76
41062;BME280;26812;42.662;23.352;2023-02-21T15:33:06;94726.97;;;19.62;21.15
41062;BME280;26812;42.662;23.352;2023-02-21T15:35:48;94724.94;;;19.55;22.97
41062;BME280;26812;42.662;23.352;2023-02-21T15:38:19;94738.53;;;19.51;21.63